Time;durP1;ratioP1;P1;durP2;ratioP2;P2;SDS_P1;SDS_P2;PMS_P1;PMS_P2;Temp;Humidity;BMP_temperature;BMP_pressure;BME280_temperature;BME280_humidity;BME280_pressure;Samples;Min_cycle;Max_cycle;Signal;HPM_P1;HPM_P2
2022/02/20 00:02:17;;;;;;;6.82;1.42;;;18.90;61.20;;;;;;20787969;28;20041;-59
2022/02/20 00:12:19;;;;;;;5.32;1.35;;;18.90;61.20;;;;;;20784822;28;20042;-58
2022/02/20 00:22:21;;;;;;;5.45;1.38;;;18.80;61.40;;;;;;20776944;28;20049;-59
2022/02/20 00:32:25;;;;;;;3.55;1.33;;;18.80;61.50;;;;;;20781020;28;20480;-60
2022/02/20 00:42:26;;;;;;;3.38;1.45;;;18.70;61.60;;;;;;20786612;28;20046;-59
2022/02/20 00:52:28;;;;;;;2.33;1.23;;;18.70;61.60;;;;;;20754067;28;20404;-59
2022/02/20 01:02:30;;;;;;;3.55;1.20;;;18.70;61.60;;;;;;20767201;28;20141;-58
2022/02/20 01:12:31;;;;;;;4.57;1.30;;;18.70;61.60;;;;;;20779065;28;20050;-59
2022/02/20 01:22:33;;;;;;;3.47;0.98;;;18.60;61.60;;;;;;20771616;28;20202;-59
2022/02/20 01:32:35;;;;;;;5.13;1.33;;;18.60;61.50;;;;;;20766156;28;20053;-59
2022/02/20 01:42:37;;;;;;;4.05;0.90;;;18.60;61.40;;;;;;20771102;28;20464;-59
2022/02/20 01:52:39;;;;;;;1.88;0.80;;;18.60;61.50;;;;;;20804032;28;20086;-59
2022/02/20 02:02:42;;;;;;;3.05;0.90;;;18.60;61.30;;;;;;20774728;28;20050;-60
2022/02/20 02:12:44;;;;;;;2.92;1.00;;;18.60;61.00;;;;;;20813483;28;20053;-59
2022/02/20 02:22:47;;;;;;;1.77;0.82;;;18.50;60.80;;;;;;20798191;28;20052;-59
2022/02/20 02:32:50;;;;;;;2.25;1.17;;;18.40;60.80;;;;;;20812559;28;20049;-59
2022/02/20 02:42:59;;;;;;;3.25;0.85;;;18.30;60.80;;;;;;20793039;28;20477;-59
2022/02/20 02:53:07;;;;;;;3.08;0.98;;;18.30;60.70;;;;;;20784172;28;20161;-58
2022/02/20 03:03:19;;;;;;;1.83;0.90;;;18.20;60.70;;;;;;20806846;28;20053;-59
2022/02/20 03:13:34;;;;;;;2.30;0.95;;;18.20;60.80;;;;;;20807746;28;20053;-58
2022/02/20 03:23:56;;;;;;;2.35;1.13;;;18.00;61.10;;;;;;20782314;28;20037;-59
2022/02/20 03:34:17;;;;;;;2.92;0.70;;;18.00;61.20;;;;;;20804907;28;20456;-59
2022/02/20 03:44:38;;;;;;;1.42;0.95;;;17.90;61.40;;;;;;20790333;28;20122;-59
2022/02/20 03:54:45;;;;;;;2.40;0.95;;;17.80;61.60;;;;;;20791457;28;20077;-59
2022/02/20 04:04:51;;;;;;;2.03;0.75;;;17.80;61.70;;;;;;20801814;28;20056;-59
2022/02/20 04:15:07;;;;;;;0.95;0.50;;;17.70;61.80;;;;;;20801044;28;20121;-59
2022/02/20 04:25:28;;;;;;;2.40;0.70;;;17.70;61.80;;;;;;20797507;28;20069;-59
2022/02/20 04:35:47;;;;;;;1.10;0.68;;;17.70;61.90;;;;;;20779854;28;20058;-59
2022/02/20 04:46:08;;;;;;;2.67;0.77;;;17.70;62.00;;;;;;20767734;28;20088;-59
2022/02/20 04:56:30;;;;;;;2.20;0.68;;;17.60;62.00;;;;;;20802022;28;20060;-59
2022/02/20 05:06:51;;;;;;;1.65;0.80;;;17.60;62.10;;;;;;20759195;28;20049;-59
2022/02/20 05:17:14;;;;;;;1.02;0.70;;;17.60;62.10;;;;;;20810373;28;20582;-59
2022/02/20 05:27:35;;;;;;;1.35;0.70;;;17.80;62.70;;;;;;20817073;28;20049;-59
2022/02/20 05:37:57;;;;;;;1.02;0.45;;;19.10;62.00;;;;;;20816693;28;20081;-59
2022/02/20 05:48:10;;;;;;;0.68;0.32;;;20.30;60.80;;;;;;20796505;28;20049;-59
2022/02/20 05:58:17;;;;;;;2.78;0.77;;;21.20;59.10;;;;;;20796576;28;20195;-60
2022/02/20 06:08:22;;;;;;;1.83;0.70;;;21.50;57.60;;;;;;21275151;27;20042;-59
2022/02/20 06:18:26;;;;;;;2.92;0.75;;;21.20;56.30;;;;;;21296044;27;20133;-60
2022/02/20 06:28:33;;;;;;;1.20;0.55;;;20.60;56.30;;;;;;21293697;27;20761;-60
2022/02/20 06:38:35;;;;;;;1.27;0.60;;;20.10;56.40;;;;;;21285168;27;20051;-60
2022/02/20 06:48:39;;;;;;;1.58;0.60;;;19.60;56.70;;;;;;21312207;27;20070;-60
2022/02/20 06:58:42;;;;;;;3.17;0.50;;;19.20;57.30;;;;;;21281149;27;20106;-59
2022/02/20 07:08:45;;;;;;;1.50;0.50;;;18.90;57.60;;;;;;20849781;27;20053;-59
2022/02/20 07:18:48;;;;;;;1.30;0.60;;;;;;;;;;20884105;28;20414;-60
2022/02/20 07:28:52;;;;;;;0.95;0.50;;;;;;;;;;20848067;27;20132;-60
2022/02/20 07:38:53;;;;;;;1.20;0.60;;;18.10;58.50;;;;;;20876078;27;20065;-61
2022/02/20 07:48:57;;;;;;;1.85;0.70;;;17.90;58.80;;;;;;20817472;27;20339;-61
2022/02/20 07:59:00;;;;;;;1.45;0.65;;;17.80;59.10;;;;;;20883548;27;20544;-59
2022/02/20 08:09:04;;;;;;;2.17;0.55;;;17.70;59.30;;;;;;20842645;27;20104;-59
2022/02/20 08:19:07;;;;;;;1.77;0.80;;;;;;;;;;20838891;27;20073;-60
2022/02/20 08:29:09;;;;;;;2.58;0.90;;;17.60;59.50;;;;;;20883988;27;20056;-60
2022/02/20 08:39:12;;;;;;;2.63;0.80;;;17.60;59.70;;;;;;20857013;27;20136;-60
2022/02/20 08:49:16;;;;;;;5.60;1.00;;;17.60;59.80;;;;;;20868559;27;20049;-59
2022/02/20 08:59:18;;;;;;;7.35;0.80;;;17.60;60.00;;;;;;20926215;27;20369;-60
2022/02/20 09:09:21;;;;;;;4.85;0.85;;;17.70;60.10;;;;;;21286556;27;20043;-60
2022/02/20 09:19:24;;;;;;;3.20;0.90;;;17.70;60.30;;;;;;21271560;27;20524;-61
2022/02/20 09:29:26;;;;;;;4.78;1.55;;;17.90;60.30;;;;;;21327646;27;20047;-61
2022/02/20 09:39:29;;;;;;;5.72;1.60;;;17.90;59.70;;;;;;21313613;27;20498;-61
2022/02/20 09:49:33;;;;;;;4.20;1.13;;;18.00;58.20;;;;;;21305664;27;20091;-59
2022/02/20 09:59:35;;;;;;;2.08;1.38;;;19.20;57.20;;;;;;21258316;27;20037;-61
2022/02/20 10:09:38;;;;;;;5.75;1.30;;;20.60;56.20;;;;;;20895545;27;20597;-60
2022/02/20 10:19:51;;;;;;;4.22;1.30;;;22.00;51.10;;;;;;20870408;27;20061;-60
2022/02/20 10:30:12;;;;;;;4.20;1.73;;;22.60;45.40;;;;;;20892705;27;20045;-58
2022/02/20 10:40:31;;;;;;;2.85;1.35;;;22.30;42.60;;;;;;20948406;27;20585;-59
2022/02/20 10:50:33;;;;;;;4.82;1.50;;;22.00;43.30;;;;;;20894406;27;20097;-58
2022/02/20 11:00:35;;;;;;;15.52;1.55;;;21.50;44.30;;;;;;20890976;27;20499;-58
2022/02/20 11:10:39;;;;;;;6.90;1.40;;;21.10;45.30;;;;;;20938928;27;20056;-58
2022/02/20 11:20:43;;;;;;;8.52;1.40;;;20.70;46.20;;;;;;20863192;27;20049;-57
2022/02/20 11:30:45;;;;;;;6.63;1.48;;;20.40;47.50;;;;;;20880894;27;20098;-57
2022/02/20 11:41:02;;;;;;;7.30;1.30;;;20.20;48.80;;;;;;20886927;28;20064;-58
2022/02/20 11:51:17;;;;;;;6.88;1.42;;;20.10;49.60;;;;;;20876466;27;20061;-59
2022/02/20 12:01:19;;;;;;;3.45;1.45;;;19.90;49.00;;;;;;20998937;27;20051;-58
2022/02/20 12:11:45;;;;;;;8.23;1.50;;;19.80;48.20;;;;;;21294233;27;20046;-61
2022/02/20 12:21:51;;;;;;;1.98;1.17;;;19.70;47.30;;;;;;21290840;27;20042;-59
2022/02/20 12:32:15;;;;;;;1.60;1.02;;;19.70;46.60;;;;;;21282631;27;20054;-60
2022/02/20 12:42:19;;;;;;;3.63;1.05;;;19.70;45.90;;;;;;21298995;27;20077;-59
2022/02/20 12:52:22;;;;;;;4.03;1.10;;;19.70;45.30;;;;;;21311966;27;20141;-59
2022/02/20 13:02:33;;;;;;;1.88;0.98;;;19.70;45.00;;;;;;21263201;27;20481;-59
2022/02/20 13:12:34;;;;;;;2.95;1.25;;;19.60;44.50;;;;;;21310870;27;20039;-59
2022/02/20 13:22:37;;;;;;;1.55;1.00;;;19.60;44.10;;;;;;21329334;27;20066;-59
2022/02/20 13:32:39;;;;;;;2.28;0.90;;;19.70;43.90;;;;;;21319327;27;20509;-59
2022/02/20 13:42:58;;;;;;;6.00;3.40;;;19.70;43.70;;;;;;21276841;27;20086;-59
2022/02/20 13:53:00;;;;;;;7.03;4.05;;;19.70;43.30;;;;;;21316714;27;20050;-59
2022/02/20 14:03:02;;;;;;;5.70;3.13;;;19.70;42.90;;;;;;21083324;27;20053;-58
2022/02/20 14:13:16;;;;;;;6.30;3.20;;;19.70;42.70;;;;;;20860548;28;20053;-59
2022/02/20 14:23:24;;;;;;;7.57;3.28;;;19.70;42.30;;;;;;20871187;28;20392;-59
2022/02/20 14:33:27;;;;;;;4.33;2.23;;;19.70;42.10;;;;;;20902296;27;20053;-58
2022/02/20 14:43:28;;;;;;;6.65;2.13;;;19.70;42.60;;;;;;20941363;27;20653;-59
2022/02/20 14:53:30;;;;;;;8.50;4.25;;;19.70;43.20;;;;;;20948778;27;20044;-59
2022/02/20 15:03:32;;;;;;;10.07;5.28;;;19.70;43.40;;;;;;21187182;27;20179;-60
2022/02/20 15:13:34;;;;;;;8.63;5.28;;;19.70;43.00;;;;;;21320865;27;20046;-61
2022/02/20 15:23:37;;;;;;;7.93;4.13;;;19.60;42.70;;;;;;21303908;27;20047;-60
2022/02/20 15:33:39;;;;;;;6.20;3.05;;;19.60;43.00;;;;;;21284531;27;20050;-60
2022/02/20 15:43:41;;;;;;;5.80;3.30;;;19.60;42.90;;;;;;21308644;27;20064;-63
2022/02/20 15:53:45;;;;;;;14.80;4.35;;;19.50;42.90;;;;;;21275564;27;20058;-60
2022/02/20 16:03:47;;;;;;;8.57;2.92;;;19.50;43.50;;;;;;21309864;27;20035;-60
2022/02/20 16:13:48;;;;;;;7.10;2.08;;;19.60;43.40;;;;;;21264434;27;20505;-59
2022/02/20 16:23:50;;;;;;;6.15;2.35;;;19.50;42.90;;;;;;21292530;27;20046;-60
2022/02/20 16:33:53;;;;;;;4.35;2.13;;;19.50;43.20;;;;;;21302936;27;20058;-61
2022/02/20 16:43:55;;;;;;;8.77;2.25;;;19.40;44.00;;;;;;21329047;27;20143;-60
2022/02/20 16:53:58;;;;;;;7.53;2.60;;;19.30;45.00;;;;;;21299394;27;20105;-61
2022/02/20 17:04:01;;;;;;;6.93;1.95;;;19.30;45.80;;;;;;21308972;27;20098;-60
2022/02/20 17:14:04;;;;;;;5.90;2.35;;;19.20;46.50;;;;;;21334373;27;20051;-60
2022/02/20 17:24:06;;;;;;;4.05;1.80;;;19.20;46.90;;;;;;21309516;27;20074;-59
2022/02/20 17:34:08;;;;;;;5.88;1.80;;;19.10;47.20;;;;;;21283392;27;20050;-59
2022/02/20 17:44:10;;;;;;;2.75;1.63;;;19.20;46.80;;;;;;21309066;27;20046;-61
2022/02/20 17:54:12;;;;;;;3.75;1.35;;;20.30;46.30;;;;;;21269088;27;20042;-59
2022/02/20 18:04:16;;;;;;;4.35;1.35;;;21.60;45.20;;;;;;21284304;27;20038;-62
2022/02/20 18:14:18;;;;;;;7.43;1.98;;;22.80;44.50;;;;;;21297261;27;20043;-56
2022/02/20 18:24:19;;;;;;;3.65;1.50;;;23.70;43.60;;;;;;21300886;27;20130;-61
2022/02/20 18:34:21;;;;;;;3.88;1.13;;;24.50;42.90;;;;;;21383722;27;20050;-63
2022/02/20 18:44:23;;;;;;;4.35;1.42;;;25.00;42.20;;;;;;21270836;27;20102;-61
2022/02/20 18:54:24;;;;;;;1.70;1.00;;;25.50;41.50;;;;;;21247326;27;20078;-61
2022/02/20 19:04:27;;;;;;;1.60;0.75;;;25.80;40.90;;;;;;21234445;27;20046;-59
2022/02/20 19:14:28;;;;;;;3.60;0.95;;;26.00;40.60;;;;;;21241843;27;20089;-60
2022/02/20 19:24:32;;;;;;;2.20;1.05;;;26.20;40.20;;;;;;21241316;27;20043;-61
2022/02/20 19:34:35;;;;;;;1.40;0.90;;;26.30;40.00;;;;;;21275208;27;20054;-60
2022/02/20 19:44:37;;;;;;;4.10;1.42;;;26.40;39.80;;;;;;21310170;27;20047;-60
2022/02/20 19:54:40;;;;;;;8.95;1.80;;;26.30;39.60;;;;;;21290575;27;20046;-52
2022/02/20 20:04:41;;;;;;;2.33;1.30;;;26.00;39.50;;;;;;21309631;27;20572;-54
2022/02/20 20:14:44;;;;;;;5.80;2.08;;;25.40;40.10;;;;;;21307299;27;20493;-53
2022/02/20 20:24:46;;;;;;;7.30;2.45;;;24.60;40.30;;;;;;21303136;27;20478;-53
2022/02/20 20:34:48;;;;;;;5.10;1.98;;;23.80;40.60;;;;;;21297204;27;20046;-51
2022/02/20 20:44:50;;;;;;;5.70;2.45;;;23.20;40.70;;;;;;21280838;27;20180;-56
2022/02/20 20:54:52;;;;;;;4.93;2.67;;;22.60;40.70;;;;;;21296884;27;20150;-56
2022/02/20 21:04:54;;;;;;;7.72;2.67;;;22.10;41.90;;;;;;21289930;27;20424;-52
2022/02/20 21:14:56;;;;;;;6.60;2.58;;;21.80;42.80;;;;;;21291126;27;20050;-56
2022/02/20 21:24:58;;;;;;;7.20;2.83;;;21.50;43.20;;;;;;21308118;27;20074;-56
2022/02/20 21:35:02;;;;;;;4.47;2.45;;;21.20;43.60;;;;;;21342017;27;20046;-55
2022/02/20 21:45:05;;;;;;;7.03;2.30;;;21.00;44.30;;;;;;21305445;27;20039;-54
2022/02/20 21:55:08;;;;;;;5.47;3.05;;;20.70;45.00;;;;;;21286287;27;20058;-54
2022/02/20 22:05:10;;;;;;;8.15;2.10;;;20.40;45.80;;;;;;21282906;27;20044;-55
2022/02/20 22:15:12;;;;;;;6.05;2.13;;;20.20;46.60;;;;;;21260511;27;20059;-57
2022/02/20 22:25:17;;;;;;;4.20;2.08;;;20.00;47.30;;;;;;21304614;27;20370;-56
2022/02/20 22:35:19;;;;;;;4.03;2.22;;;19.80;48.00;;;;;;21338735;27;20489;-56
2022/02/20 22:45:22;;;;;;;6.00;1.95;;;19.70;48.50;;;;;;21306658;27;20408;-56
2022/02/20 22:55:24;;;;;;;4.85;1.90;;;19.50;49.20;;;;;;21305462;27;20098;-59
2022/02/20 23:05:25;;;;;;;4.25;1.80;;;19.40;49.30;;;;;;21298051;27;20506;-59
2022/02/20 23:15:27;;;;;;;3.60;1.88;;;19.30;49.70;;;;;;21306666;27;20046;-61
2022/02/20 23:25:29;;;;;;;3.58;1.70;;;19.20;50.20;;;;;;21297063;27;20050;-60
2022/02/20 23:35:31;;;;;;;3.38;1.45;;;19.20;50.60;;;;;;21319835;27;20445;-60
2022/02/20 23:45:33;;;;;;;9.23;1.90;;;19.10;50.80;;;;;;21298034;27;20039;-60
2022/02/20 23:55:36;;;;;;;4.65;1.58;;;19.00;51.10;;;;;;21306245;27;20470;-60
